Aérodrome :
LOGIN :

S'inscrire | Disclaimer

   EN    FR    IT 

 










Légende :    VFR   VFR Marginal   IFR   IFR Intensif   IFR Très Intensif
Visi : 
Plafond : 
>= 8 km
>= 3000ft
5 à 8 km
1000 à 3000 ft
1500m à 5 km
500 à 1000 ft
800 à 1500m
200 à 500 ft
< 800m
< 200 ft
Symboles :   Orages  Brouillard  Fortes neiges  Fortes précipitations  Vent > 20 kt
SIGMETs :   Divers  Orages  Givrage  Turbulence  Onde Orograph.  Cendres Volcan.







- Altitude de l'aérodrome : 36 ft
- Code IATA : LTQ
- Voir les cartes d'approche


LFAT - Le Touquet

DERNIER METAR :
  • 251430Z AUTO 11006KT CAVOK 20/12 Q1019 NOSIG

METARs EXPIRÉS :
  • 251400Z AUTO 11007KT CAVOK 20/13 Q1018 NOSIG
  • 251330Z AUTO 12007KT CAVOK 20/13 Q1018 NOSIG
  • 251300Z AUTO 10008KT 070V130 CAVOK 20/13 Q1018 NOSIG
  • 251230Z AUTO 12007KT 090V160 CAVOK 20/13 Q1018 NOSIG
  • 251200Z AUTO 13007KT CAVOK 20/13 Q1018 NOSIG

TAF TAF LFAT
Valide du 25 à 15h jusqu'au 26 à 00h UTC


251400Z 2515/2524 09006KT CAVOK
ATIS : +33 3 21 06 62 84
Pas de NOTAMs connus pour ce terrain.



MET'MAP, la Météo Aéronautique d'un coup d'oeil ! - Copyright ORBIFLY Décembre 2007 - Disclaimer

ORBIFLY MET'MAP TEAM :

Programmation & Développement : Alexandra Zaïnal
Conception & Développement : Baudouin d'Aumeries
Co-Programmation & Développement : Marc-Olivier Méhu
Soutien technique & logistique : Manuel Goepfert

Contact : metmap@orbifly.com




SOURCES & CREDITS :

   NOAA